sensor_id;sensor_type;location;lat;lon;timestamp;pressure;altitude;pressure_sealevel;temperature;humidity
37792;BME280;29527;55.766;37.570;2023-03-04T00:02:16;98101.78;;;0.19;62.99
37792;BME280;29527;55.766;37.570;2023-03-04T00:04:42;98136.59;;;0.37;63.16
37792;BME280;29527;55.766;37.570;2023-03-04T00:07:07;98132.16;;;0.37;63.27
37792;BME280;29527;55.766;37.570;2023-03-04T00:09:33;98121.91;;;0.33;63.46
37792;BME280;29527;55.766;37.570;2023-03-04T00:11:58;98126.25;;;0.34;63.09
37792;BME280;29527;55.766;37.570;2023-03-04T00:14:24;98089.75;;;0.14;62.98
37792;BME280;29527;55.766;37.570;2023-03-04T00:16:49;98116.78;;;0.31;63.52
37792;BME280;29527;55.766;37.570;2023-03-04T00:19:15;98081.13;;;0.12;63.60
37792;BME280;29527;55.766;37.570;2023-03-04T00:21:40;98083.47;;;0.17;63.41
37792;BME280;29527;55.766;37.570;2023-03-04T00:24:06;98106.13;;;0.33;63.47
37792;BME280;29527;55.766;37.570;2023-03-04T00:26:31;98104.34;;;0.33;63.19
37792;BME280;29527;55.766;37.570;2023-03-04T00:28:57;98097.50;;;0.31;63.53
37792;BME280;29527;55.766;37.570;2023-03-04T00:31:22;98096.53;;;0.32;63.40
37792;BME280;29527;55.766;37.570;2023-03-04T00:33:48;98086.22;;;0.28;63.56
37792;BME280;29527;55.766;37.570;2023-03-04T00:36:13;98090.53;;;0.30;63.41
37792;BME280;29527;55.766;37.570;2023-03-04T00:38:39;98089.50;;;0.32;63.70
37792;BME280;29527;55.766;37.570;2023-03-04T00:41:05;98080.97;;;0.28;63.68
37792;BME280;29527;55.766;37.570;2023-03-04T00:43:30;98088.66;;;0.32;63.51
37792;BME280;29527;55.766;37.570;2023-03-04T00:45:56;98068.22;;;0.22;63.53
37792;BME280;29527;55.766;37.570;2023-03-04T00:48:21;98089.59;;;0.31;63.46
37792;BME280;29527;55.766;37.570;2023-03-04T00:50:47;98084.53;;;0.27;63.31
37792;BME280;29527;55.766;37.570;2023-03-04T00:53:13;98092.94;;;0.20;63.85
37792;BME280;29527;55.766;37.570;2023-03-04T00:55:39;98087.38;;;0.24;64.15
37792;BME280;29527;55.766;37.570;2023-03-04T00:58:04;98091.19;;;0.33;64.34
37792;BME280;29527;55.766;37.570;2023-03-04T01:00:30;98086.00;;;0.32;63.83
37792;BME280;29527;55.766;37.570;2023-03-04T01:02:55;98095.09;;;0.40;63.83
37792;BME280;29527;55.766;37.570;2023-03-04T01:05:21;98091.31;;;0.45;63.82
37792;BME280;29527;55.766;37.570;2023-03-04T01:07:47;98075.72;;;0.41;63.58
37792;BME280;29527;55.766;37.570;2023-03-04T01:10:13;98090.25;;;0.47;63.43
37792;BME280;29527;55.766;37.570;2023-03-04T01:12:39;98084.78;;;0.50;63.34
37792;BME280;29527;55.766;37.570;2023-03-04T01:15:07;98053.47;;;0.33;63.63
37792;BME280;29527;55.766;37.570;2023-03-04T01:17:33;98082.81;;;0.54;63.71
37792;BME280;29527;55.766;37.570;2023-03-04T01:19:58;98084.28;;;0.58;63.26
37792;BME280;29527;55.766;37.570;2023-03-04T01:22:24;98081.72;;;0.56;63.50
37792;BME280;29527;55.766;37.570;2023-03-04T01:24:49;98067.94;;;0.53;63.38
37792;BME280;29527;55.766;37.570;2023-03-04T01:27:14;98067.94;;;0.53;63.29
37792;BME280;29527;55.766;37.570;2023-03-04T01:29:41;98081.66;;;0.58;63.57
37792;BME280;29527;55.766;37.570;2023-03-04T01:32:06;98079.97;;;0.57;63.45
37792;BME280;29527;55.766;37.570;2023-03-04T01:34:32;98068.47;;;0.58;64.01
37792;BME280;29527;55.766;37.570;2023-03-04T01:36:57;98068.69;;;0.55;63.74
37792;BME280;29527;55.766;37.570;2023-03-04T01:39:23;98072.28;;;0.54;63.77
37792;BME280;29527;55.766;37.570;2023-03-04T01:41:48;98060.25;;;0.50;63.80
37792;BME280;29527;55.766;37.570;2023-03-04T01:44:14;98060.25;;;0.50;63.61
37792;BME280;29527;55.766;37.570;2023-03-04T01:46:43;98061.09;;;0.50;63.38
37792;BME280;29527;55.766;37.570;2023-03-04T01:49:13;98056.13;;;0.46;63.56
37792;BME280;29527;55.766;37.570;2023-03-04T01:51:39;98062.13;;;0.48;63.76
37792;BME280;29527;55.766;37.570;2023-03-04T01:54:07;98041.69;;;0.38;63.97
37792;BME280;29527;55.766;37.570;2023-03-04T01:56:38;98048.97;;;0.48;64.05
37792;BME280;29527;55.766;37.570;2023-03-04T01:59:24;98038.34;;;0.49;63.91
37792;BME280;29527;55.766;37.570;2023-03-04T02:01:55;98045.41;;;0.49;63.86
37792;BME280;29527;55.766;37.570;2023-03-04T02:04:30;98037.69;;;0.46;63.82
37792;BME280;29527;55.766;37.570;2023-03-04T02:06:57;98028.44;;;0.40;63.78
37792;BME280;29527;55.766;37.570;2023-03-04T02:09:24;98029.47;;;0.37;63.66
37792;BME280;29527;55.766;37.570;2023-03-04T02:11:50;98023.78;;;0.31;63.89
37792;BME280;29527;55.766;37.570;2023-03-04T02:14:17;98025.06;;;0.25;63.85
37792;BME280;29527;55.766;37.570;2023-03-04T02:16:44;98007.22;;;0.16;64.21
37792;BME280;29527;55.766;37.570;2023-03-04T02:19:18;98008.84;;;0.18;64.34
37792;BME280;29527;55.766;37.570;2023-03-04T02:21:49;98008.84;;;0.18;64.24
37792;BME280;29527;55.766;37.570;2023-03-04T02:24:26;98009.78;;;0.17;64.43
37792;BME280;29527;55.766;37.570;2023-03-04T02:26:52;98009.88;;;0.16;64.59
37792;BME280;29527;55.766;37.570;2023-03-04T02:29:18;98007.22;;;0.16;64.72
37792;BME280;29527;55.766;37.570;2023-03-04T02:31:46;97965.63;;;-0.05;64.66
37792;BME280;29527;55.766;37.570;2023-03-04T02:34:30;97953.63;;;-0.09;64.58
37792;BME280;29527;55.766;37.570;2023-03-04T02:36:57;97989.88;;;0.00;64.66
37792;BME280;29527;55.766;37.570;2023-03-04T02:39:30;97982.34;;;-0.06;64.80
37792;BME280;29527;55.766;37.570;2023-03-04T02:42:00;97991.69;;;-0.15;64.83
37792;BME280;29527;55.766;37.570;2023-03-04T02:44:31;97975.38;;;-0.20;65.04
37792;BME280;29527;55.766;37.570;2023-03-04T02:46:59;97965.13;;;-0.38;65.65
37792;BME280;29527;55.766;37.570;2023-03-04T02:49:26;97972.19;;;-0.38;65.77
37792;BME280;29527;55.766;37.570;2023-03-04T02:51:57;97970.50;;;-0.39;66.20
37792;BME280;29527;55.766;37.570;2023-03-04T02:54:23;97966.28;;;-0.42;66.23
37792;BME280;29527;55.766;37.570;2023-03-04T02:56:51;97975.16;;;-0.30;65.76
37792;BME280;29527;55.766;37.570;2023-03-04T02:59:18;97963.69;;;-0.29;65.63
37792;BME280;29527;55.766;37.570;2023-03-04T03:01:44;97966.31;;;-0.29;65.53
37792;BME280;29527;55.766;37.570;2023-03-04T03:04:10;97962.66;;;-0.26;66.02
37792;BME280;29527;55.766;37.570;2023-03-04T03:06:35;97961.50;;;-0.22;65.99
37792;BME280;29527;55.766;37.570;2023-03-04T03:09:02;97960.25;;;-0.17;65.30
37792;BME280;29527;55.766;37.570;2023-03-04T03:11:28;97916.84;;;-0.37;65.55
37792;BME280;29527;55.766;37.570;2023-03-04T03:13:53;97955.81;;;-0.16;65.41
37792;BME280;29527;55.766;37.570;2023-03-04T03:16:18;97958.16;;;-0.11;65.46
37792;BME280;29527;55.766;37.570;2023-03-04T03:18:44;97953.94;;;-0.14;65.42
37792;BME280;29527;55.766;37.570;2023-03-04T03:21:09;97934.16;;;-0.20;65.63
37792;BME280;29527;55.766;37.570;2023-03-04T03:23:35;97934.38;;;-0.23;65.76
37792;BME280;29527;55.766;37.570;2023-03-04T03:26:01;97949.31;;;-0.10;65.76
37792;BME280;29527;55.766;37.570;2023-03-04T03:28:27;97945.09;;;-0.13;65.66
37792;BME280;29527;55.766;37.570;2023-03-04T03:30:53;97951.66;;;-0.06;65.73
37792;BME280;29527;55.766;37.570;2023-03-04T03:33:18;97942.91;;;-0.06;65.45
37792;BME280;29527;55.766;37.570;2023-03-04T03:35:44;97931.75;;;-0.10;65.69
37792;BME280;29527;55.766;37.570;2023-03-04T03:38:09;97929.53;;;-0.03;65.41
37792;BME280;29527;55.766;37.570;2023-03-04T03:40:35;97932.28;;;-0.05;65.60
37792;BME280;29527;55.766;37.570;2023-03-04T03:43:00;97919.63;;;-0.12;65.75
37792;BME280;29527;55.766;37.570;2023-03-04T03:45:26;97938.06;;;-0.12;65.72
37792;BME280;29527;55.766;37.570;2023-03-04T03:47:51;97888.03;;;-0.38;65.71
37792;BME280;29527;55.766;37.570;2023-03-04T03:50:17;97925.13;;;-0.16;65.99
37792;BME280;29527;55.766;37.570;2023-03-04T03:52:42;97923.44;;;-0.17;65.90
37792;BME280;29527;55.766;37.570;2023-03-04T03:55:08;97920.06;;;-0.19;65.58
37792;BME280;29527;55.766;37.570;2023-03-04T03:57:33;97917.81;;;-0.25;65.66
37792;BME280;29527;55.766;37.570;2023-03-04T04:00:00;97916.25;;;-0.27;65.51
37792;BME280;29527;55.766;37.570;2023-03-04T04:02:25;97911.22;;;-0.31;65.90
37792;BME280;29527;55.766;37.570;2023-03-04T04:04:50;97900.25;;;-0.37;65.66
37792;BME280;29527;55.766;37.570;2023-03-04T04:07:16;97901.06;;;-0.37;65.79
37792;BME280;29527;55.766;37.570;2023-03-04T04:09:42;97891.63;;;-0.39;66.17
37792;BME280;29527;55.766;37.570;2023-03-04T04:12:07;97882.34;;;-0.45;66.32
37792;BME280;29527;55.766;37.570;2023-03-04T04:14:33;97895.28;;;-0.42;66.29
37792;BME280;29527;55.766;37.570;2023-03-04T04:16:58;97884.16;;;-0.46;65.99
37792;BME280;29527;55.766;37.570;2023-03-04T04:19:24;97844.13;;;-0.64;66.46
37792;BME280;29527;55.766;37.570;2023-03-04T04:21:49;97874.25;;;-0.42;66.42
37792;BME280;29527;55.766;37.570;2023-03-04T04:24:15;97869.31;;;-0.47;66.31
37792;BME280;29527;55.766;37.570;2023-03-04T04:26:41;97869.13;;;-0.44;66.45
37792;BME280;29527;55.766;37.570;2023-03-04T04:29:08;97870.47;;;-0.38;66.05
37792;BME280;29527;55.766;37.570;2023-03-04T04:31:34;97864.16;;;-0.35;66.23
37792;BME280;29527;55.766;37.570;2023-03-04T04:34:00;97856.06;;;-0.32;66.28
37792;BME280;29527;55.766;37.570;2023-03-04T04:36:25;97864.47;;;-0.27;66.11
37792;BME280;29527;55.766;37.570;2023-03-04T04:38:51;97869.56;;;-0.24;66.15
37792;BME280;29527;55.766;37.570;2023-03-04T04:41:26;97871.78;;;-0.18;66.06
37792;BME280;29527;55.766;37.570;2023-03-04T04:43:53;97867.66;;;-0.22;66.01
37792;BME280;29527;55.766;37.570;2023-03-04T04:46:19;97861.75;;;-0.25;65.97
37792;BME280;29527;55.766;37.570;2023-03-04T04:48:44;97857.34;;;-0.25;66.36
37792;BME280;29527;55.766;37.570;2023-03-04T04:51:10;97856.41;;;-0.24;66.09
37792;BME280;29527;55.766;37.570;2023-03-04T04:53:36;97865.78;;;-0.20;66.04
37792;BME280;29527;55.766;37.570;2023-03-04T04:56:13;97864.63;;;-0.16;66.37
37792;BME280;29527;55.766;37.570;2023-03-04T04:58:38;97864.63;;;-0.16;66.63
37792;BME280;29527;55.766;37.570;2023-03-04T05:01:04;97863.66;;;-0.15;66.30
37792;BME280;29527;55.766;37.570;2023-03-04T05:03:31;97871.25;;;-0.10;65.76
37792;BME280;29527;55.766;37.570;2023-03-04T05:05:57;97869.44;;;-0.09;65.91
37792;BME280;29527;55.766;37.570;2023-03-04T05:08:22;97857.25;;;-0.10;66.08
37792;BME280;29527;55.766;37.570;2023-03-04T05:10:48;97857.75;;;-0.05;65.96
37792;BME280;29527;55.766;37.570;2023-03-04T05:13:13;97845.56;;;-0.06;66.32
37792;BME280;29527;55.766;37.570;2023-03-04T05:15:39;97853.34;;;0.08;65.72
37792;BME280;29527;55.766;37.570;2023-03-04T05:18:04;97854.38;;;0.19;65.52
37792;BME280;29527;55.766;37.570;2023-03-04T05:20:30;97845.13;;;0.26;65.08
37792;BME280;29527;55.766;37.570;2023-03-04T05:22:55;97836.28;;;0.27;64.72
37792;BME280;29527;55.766;37.570;2023-03-04T05:25:20;97832.56;;;0.30;64.66
37792;BME280;29527;55.766;37.570;2023-03-04T05:27:46;97838.03;;;0.39;64.68
37792;BME280;29527;55.766;37.570;2023-03-04T05:30:12;97795.63;;;0.31;64.69
37792;BME280;29527;55.766;37.570;2023-03-04T05:32:37;97835.56;;;0.62;64.08
37792;BME280;29527;55.766;37.570;2023-03-04T05:35:03;97826.06;;;0.73;64.05
37792;BME280;29527;55.766;37.570;2023-03-04T05:37:29;97832.72;;;0.90;63.16
37792;BME280;29527;55.766;37.570;2023-03-04T05:39:54;97818.75;;;1.00;63.01
37792;BME280;29527;55.766;37.570;2023-03-04T05:42:20;97826.38;;;1.17;62.63
37792;BME280;29527;55.766;37.570;2023-03-04T05:44:45;97825.06;;;1.22;61.88
37792;BME280;29527;55.766;37.570;2023-03-04T05:47:11;97826.84;;;1.22;61.80
37792;BME280;29527;55.766;37.570;2023-03-04T05:49:36;97824.56;;;1.17;61.66
37792;BME280;29527;55.766;37.570;2023-03-04T05:52:02;97823.97;;;1.13;61.59
37792;BME280;29527;55.766;37.570;2023-03-04T05:54:27;97829.34;;;1.12;61.70
37792;BME280;29527;55.766;37.570;2023-03-04T05:56:53;97821.88;;;1.06;62.14
37792;BME280;29527;55.766;37.570;2023-03-04T05:59:19;97819.59;;;1.01;61.86
37792;BME280;29527;55.766;37.570;2023-03-04T06:01:46;97818.53;;;1.04;61.82
37792;BME280;29527;55.766;37.570;2023-03-04T06:04:11;97784.91;;;0.83;62.14
37792;BME280;29527;55.766;37.570;2023-03-04T06:06:37;97815.53;;;1.08;62.43
37792;BME280;29527;55.766;37.570;2023-03-04T06:09:02;97813.06;;;1.18;61.82
37792;BME280;29527;55.766;37.570;2023-03-04T06:11:28;97808.91;;;1.27;62.01
37792;BME280;29527;55.766;37.570;2023-03-04T06:13:54;97806.31;;;1.38;61.45
37792;BME280;29527;55.766;37.570;2023-03-04T06:16:20;97809.53;;;1.42;60.96
37792;BME280;29527;55.766;37.570;2023-03-04T06:18:45;97809.34;;;1.45;60.70
37792;BME280;29527;55.766;37.570;2023-03-04T06:21:11;97810.78;;;1.49;60.90
37792;BME280;29527;55.766;37.570;2023-03-04T06:23:36;97800.47;;;1.57;60.95
37792;BME280;29527;55.766;37.570;2023-03-04T06:26:02;97797.63;;;1.83;60.54
37792;BME280;29527;55.766;37.570;2023-03-04T06:28:28;97792.13;;;2.21;59.68
37792;BME280;29527;55.766;37.570;2023-03-04T06:30:55;97786.13;;;2.74;58.39
37792;BME280;29527;55.766;37.570;2023-03-04T06:33:21;97791.75;;;3.13;56.98
37792;BME280;29527;55.766;37.570;2023-03-04T06:35:47;97784.59;;;3.25;56.15
37792;BME280;29527;55.766;37.570;2023-03-04T06:38:13;97782.47;;;3.40;55.48
37792;BME280;29527;55.766;37.570;2023-03-04T06:40:38;97777.16;;;3.52;55.66
37792;BME280;29527;55.766;37.570;2023-03-04T06:43:04;97786.16;;;3.49;54.94
37792;BME280;29527;55.766;37.570;2023-03-04T06:45:29;97773.72;;;3.40;55.45
37792;BME280;29527;55.766;37.570;2023-03-04T06:47:55;97769.81;;;3.23;55.08
37792;BME280;29527;55.766;37.570;2023-03-04T06:50:20;97743.34;;;2.80;56.21
37792;BME280;29527;55.766;37.570;2023-03-04T06:52:46;97773.16;;;2.71;56.46
37792;BME280;29527;55.766;37.570;2023-03-04T06:55:12;97764.44;;;2.59;56.93
37792;BME280;29527;55.766;37.570;2023-03-04T06:57:38;97759.59;;;2.64;56.98
37792;BME280;29527;55.766;37.570;2023-03-04T07:00:04;97759.25;;;2.69;56.81
37792;BME280;29527;55.766;37.570;2023-03-04T07:02:31;97749.28;;;2.72;55.82
37792;BME280;29527;55.766;37.570;2023-03-04T07:04:57;97746.72;;;2.82;56.16
37792;BME280;29527;55.766;37.570;2023-03-04T07:07:22;97743.94;;;2.84;56.24
37792;BME280;29527;55.766;37.570;2023-03-04T07:09:49;97741.03;;;2.87;56.01
37792;BME280;29527;55.766;37.570;2023-03-04T07:12:15;97741.28;;;2.84;56.19
37792;BME280;29527;55.766;37.570;2023-03-04T07:14:40;97739.59;;;2.83;56.64
37792;BME280;29527;55.766;37.570;2023-03-04T07:17:06;97737.66;;;2.85;56.02
37792;BME280;29527;55.766;37.570;2023-03-04T07:19:31;97728.16;;;2.94;56.19
37792;BME280;29527;55.766;37.570;2023-03-04T07:21:57;97721.44;;;3.11;55.78
37792;BME280;29527;55.766;37.570;2023-03-04T07:24:22;97729.34;;;3.22;55.58
37792;BME280;29527;55.766;37.570;2023-03-04T07:26:47;97683.09;;;3.16;55.54
37792;BME280;29527;55.766;37.570;2023-03-04T07:29:13;97708.09;;;3.55;55.25
37792;BME280;29527;55.766;37.570;2023-03-04T07:31:38;97699.50;;;3.72;55.31
37792;BME280;29527;55.766;37.570;2023-03-04T07:34:06;97706.78;;;3.80;54.50
37792;BME280;29527;55.766;37.570;2023-03-04T07:36:34;97701.19;;;3.73;55.13
37792;BME280;29527;55.766;37.570;2023-03-04T07:39:00;97702.84;;;3.65;55.80
37792;BME280;29527;55.766;37.570;2023-03-04T07:41:26;97698.69;;;3.72;55.70
37792;BME280;29527;55.766;37.570;2023-03-04T07:43:52;97704.28;;;3.79;55.72
37792;BME280;29527;55.766;37.570;2023-03-04T07:46:18;97673.28;;;3.59;55.16
37792;BME280;29527;55.766;37.570;2023-03-04T07:48:44;97698.25;;;3.67;55.66
37792;BME280;29527;55.766;37.570;2023-03-04T07:51:15;97695.88;;;3.64;55.46
37792;BME280;29527;55.766;37.570;2023-03-04T07:53:46;97650.25;;;3.50;55.42
37792;BME280;29527;55.766;37.570;2023-03-04T07:56:14;97686.41;;;3.71;54.84
37792;BME280;29527;55.766;37.570;2023-03-04T07:58:40;97683.84;;;3.59;54.79
37792;BME280;29527;55.766;37.570;2023-03-04T08:01:11;97690.38;;;3.55;54.97
37792;BME280;29527;55.766;37.570;2023-03-04T08:03:37;97673.59;;;3.35;55.47
37792;BME280;29527;55.766;37.570;2023-03-04T08:06:05;97682.06;;;3.29;55.97
37792;BME280;29527;55.766;37.570;2023-03-04T08:08:30;97677.84;;;3.26;55.99
37792;BME280;29527;55.766;37.570;2023-03-04T08:10:56;97673.53;;;3.25;55.52
37792;BME280;29527;55.766;37.570;2023-03-04T08:13:21;97676.44;;;3.22;55.01
37792;BME280;29527;55.766;37.570;2023-03-04T08:15:47;97674.13;;;3.08;55.85
37792;BME280;29527;55.766;37.570;2023-03-04T08:18:12;97668.28;;;3.04;55.91
37792;BME280;29527;55.766;37.570;2023-03-04T08:20:41;97672.31;;;3.08;56.22
37792;BME280;29527;55.766;37.570;2023-03-04T08:23:08;97661.88;;;3.07;56.01
37792;BME280;29527;55.766;37.570;2023-03-04T08:25:36;97652.47;;;3.14;56.03
37792;BME280;29527;55.766;37.570;2023-03-04T08:28:02;97640.66;;;3.18;55.45
37792;BME280;29527;55.766;37.570;2023-03-04T08:30:28;97646.88;;;3.38;55.01
37792;BME280;29527;55.766;37.570;2023-03-04T08:32:53;97653.03;;;3.49;54.99
37792;BME280;29527;55.766;37.570;2023-03-04T08:35:18;97642.06;;;3.53;54.63
37792;BME280;29527;55.766;37.570;2023-03-04T08:37:44;97619.31;;;3.41;54.91
37792;BME280;29527;55.766;37.570;2023-03-04T08:40:10;97645.41;;;3.55;54.49
37792;BME280;29527;55.766;37.570;2023-03-04T08:42:36;97636.06;;;3.51;54.62
37792;BME280;29527;55.766;37.570;2023-03-04T08:45:02;97625.88;;;3.47;54.59
37792;BME280;29527;55.766;37.570;2023-03-04T08:47:28;97630.56;;;3.33;54.58
37792;BME280;29527;55.766;37.570;2023-03-04T08:49:53;97631.25;;;3.35;54.96
37792;BME280;29527;55.766;37.570;2023-03-04T08:52:19;97630.03;;;3.39;55.32
37792;BME280;29527;55.766;37.570;2023-03-04T08:54:44;97620.53;;;3.37;54.65
37792;BME280;29527;55.766;37.570;2023-03-04T08:57:10;97619.59;;;3.38;55.19
37792;BME280;29527;55.766;37.570;2023-03-04T08:59:35;97620.19;;;3.51;54.87
37792;BME280;29527;55.766;37.570;2023-03-04T09:02:01;97616.22;;;3.67;54.58
37792;BME280;29527;55.766;37.570;2023-03-04T09:04:26;97611.41;;;3.92;53.98
37792;BME280;29527;55.766;37.570;2023-03-04T09:06:51;97604.59;;;4.09;54.24
37792;BME280;29527;55.766;37.570;2023-03-04T09:09:17;97602.94;;;4.18;53.45
37792;BME280;29527;55.766;37.570;2023-03-04T09:11:42;97595.69;;;4.29;54.20
37792;BME280;29527;55.766;37.570;2023-03-04T09:14:08;97597.75;;;4.65;53.67
37792;BME280;29527;55.766;37.570;2023-03-04T09:16:33;97596.81;;;5.14;52.15
37792;BME280;29527;55.766;37.570;2023-03-04T09:18:59;97584.78;;;5.57;50.64
37792;BME280;29527;55.766;37.570;2023-03-04T09:21:25;97577.56;;;5.96;48.97
37792;BME280;29527;55.766;37.570;2023-03-04T09:23:50;97571.44;;;6.31;48.80
37792;BME280;29527;55.766;37.570;2023-03-04T09:26:24;97571.44;;;6.68;47.85
37792;BME280;29527;55.766;37.570;2023-03-04T09:28:58;97553.28;;;6.63;47.17
37792;BME280;29527;55.766;37.570;2023-03-04T09:31:25;97532.28;;;6.15;47.51
37792;BME280;29527;55.766;37.570;2023-03-04T09:33:51;97565.94;;;5.97;48.13
37792;BME280;29527;55.766;37.570;2023-03-04T09:36:18;97553.75;;;5.58;48.41
37792;BME280;29527;55.766;37.570;2023-03-04T09:38:44;97542.09;;;5.13;49.30
37792;BME280;29527;55.766;37.570;2023-03-04T09:41:33;97541.59;;;4.89;50.75
37792;BME280;29527;55.766;37.570;2023-03-04T09:44:05;97527.19;;;4.64;50.45
37792;BME280;29527;55.766;37.570;2023-03-04T09:46:35;97526.63;;;4.51;51.05
37792;BME280;29527;55.766;37.570;2023-03-04T09:49:03;97529.75;;;4.36;50.80
37792;BME280;29527;55.766;37.570;2023-03-04T09:56:50;97502.28;;;3.78;52.23
37792;BME280;29527;55.766;37.570;2023-03-04T09:59:30;97514.13;;;4.04;51.98
37792;BME280;29527;55.766;37.570;2023-03-04T10:02:06;97500.84;;;4.33;51.45
37792;BME280;29527;55.766;37.570;2023-03-04T10:04:47;97457.03;;;4.49;51.04
37792;BME280;29527;55.766;37.570;2023-03-04T10:07:24;97484.78;;;5.02;50.06
37792;BME280;29527;55.766;37.570;2023-03-04T10:10:18;97481.25;;;5.29;49.21
37792;BME280;29527;55.766;37.570;2023-03-04T10:12:47;97481.00;;;5.51;48.28
37792;BME280;29527;55.766;37.570;2023-03-04T10:15:30;97475.41;;;5.72;47.96
37792;BME280;29527;55.766;37.570;2023-03-04T10:18:09;97441.44;;;5.57;47.23
37792;BME280;29527;55.766;37.570;2023-03-04T10:20:47;97462.59;;;5.67;47.30
37792;BME280;29527;55.766;37.570;2023-03-04T10:23:21;97460.59;;;5.51;47.26
37792;BME280;29527;55.766;37.570;2023-03-04T10:25:50;97452.19;;;5.56;47.05
37792;BME280;29527;55.766;37.570;2023-03-04T10:30:52;97445.66;;;5.50;47.15
37792;BME280;29527;55.766;37.570;2023-03-04T10:33:32;97444.91;;;5.40;47.78
37792;BME280;29527;55.766;37.570;2023-03-04T10:38:34;97440.66;;;5.01;48.74
37792;BME280;29527;55.766;37.570;2023-03-04T10:41:00;97436.22;;;4.92;49.54
37792;BME280;29527;55.766;37.570;2023-03-04T10:43:27;97427.88;;;4.86;49.15
37792;BME280;29527;55.766;37.570;2023-03-04T10:45:58;97428.53;;;4.98;49.94
37792;BME280;29527;55.766;37.570;2023-03-04T10:48:30;97428.03;;;5.13;49.28
37792;BME280;29527;55.766;37.570;2023-03-04T10:51:11;97414.50;;;5.34;49.31
37792;BME280;29527;55.766;37.570;2023-03-04T10:53:42;97418.50;;;5.38;48.11
37792;BME280;29527;55.766;37.570;2023-03-04T10:56:33;97414.81;;;5.49;48.41
37792;BME280;29527;55.766;37.570;2023-03-04T11:01:53;97398.81;;;5.23;48.76
37792;BME280;29527;55.766;37.570;2023-03-04T11:04:22;97393.56;;;5.13;48.99
37792;BME280;29527;55.766;37.570;2023-03-04T11:06:50;97379.78;;;4.81;49.89
37792;BME280;29527;55.766;37.570;2023-03-04T11:09:25;97391.72;;;4.67;51.16
37792;BME280;29527;55.766;37.570;2023-03-04T11:11:53;97384.53;;;4.50;51.89
37792;BME280;29527;55.766;37.570;2023-03-04T11:14:23;97385.28;;;4.32;52.30
37792;BME280;29527;55.766;37.570;2023-03-04T11:16:58;97376.81;;;4.28;52.79
37792;BME280;29527;55.766;37.570;2023-03-04T11:19:30;97377.97;;;4.06;53.36
37792;BME280;29527;55.766;37.570;2023-03-04T11:21:59;97386.03;;;4.24;53.03
37792;BME280;29527;55.766;37.570;2023-03-04T11:24:26;97374.53;;;4.34;51.91
37792;BME280;29527;55.766;37.570;2023-03-04T11:26:55;97376.59;;;4.02;53.62
37792;BME280;29527;55.766;37.570;2023-03-04T11:32:17;97356.28;;;3.83;54.73
37792;BME280;29527;55.766;37.570;2023-03-04T11:34:55;97353.25;;;3.78;54.86
37792;BME280;29527;55.766;37.570;2023-03-04T11:40:03;97348.25;;;3.65;55.44
37792;BME280;29527;55.766;37.570;2023-03-04T11:48:08;97318.47;;;3.33;57.93
37792;BME280;29527;55.766;37.570;2023-03-04T11:50:47;97337.97;;;3.32;57.74
37792;BME280;29527;55.766;37.570;2023-03-04T11:59:10;97326.97;;;3.17;59.44
37792;BME280;29527;55.766;37.570;2023-03-04T12:07:52;97313.72;;;2.97;60.16
37792;BME280;29527;55.766;37.570;2023-03-04T12:30:30;97280.28;;;2.57;63.11
37792;BME280;29527;55.766;37.570;2023-03-04T12:36:01;97268.91;;;2.56;62.49
37792;BME280;29527;55.766;37.570;2023-03-04T12:38:32;97268.88;;;2.47;63.09
37792;BME280;29527;55.766;37.570;2023-03-04T12:41:17;97260.78;;;2.38;63.58
37792;BME280;29527;55.766;37.570;2023-03-04T12:44:12;97259.03;;;2.49;63.57
37792;BME280;29527;55.766;37.570;2023-03-04T12:47:04;97248.44;;;2.49;63.44
37792;BME280;29527;55.766;37.570;2023-03-04T12:55:11;97233.97;;;2.43;64.21
37792;BME280;29527;55.766;37.570;2023-03-04T12:57:38;97245.91;;;2.37;64.40
37792;BME280;29527;55.766;37.570;2023-03-04T13:00:28;97235.22;;;2.29;64.80
37792;BME280;29527;55.766;37.570;2023-03-04T13:11:01;97209.09;;;2.36;65.05
37792;BME280;29527;55.766;37.570;2023-03-04T13:13:38;97206.31;;;2.37;65.31
37792;BME280;29527;55.766;37.570;2023-03-04T13:18:36;97177.09;;;2.19;65.44
37792;BME280;29527;55.766;37.570;2023-03-04T13:23:38;97194.34;;;2.33;65.50
37792;BME280;29527;55.766;37.570;2023-03-04T13:26:22;97189.38;;;2.40;65.82
37792;BME280;29527;55.766;37.570;2023-03-04T13:28:53;97188.53;;;2.49;65.39
37792;BME280;29527;55.766;37.570;2023-03-04T13:31:24;97184.38;;;2.47;66.37
37792;BME280;29527;55.766;37.570;2023-03-04T13:33:56;97179.50;;;2.52;64.66
37792;BME280;29527;55.766;37.570;2023-03-04T13:37:11;97175.59;;;2.36;65.81
37792;BME280;29527;55.766;37.570;2023-03-04T13:41:51;97163.34;;;2.35;66.28
37792;BME280;29527;55.766;37.570;2023-03-04T13:47:07;97156.00;;;2.39;65.22
37792;BME280;29527;55.766;37.570;2023-03-04T13:49:33;97149.06;;;2.28;65.55
37792;BME280;29527;55.766;37.570;2023-03-04T13:52:40;97156.28;;;2.26;66.15
37792;BME280;29527;55.766;37.570;2023-03-04T13:55:39;97144.59;;;2.38;64.76
37792;BME280;29527;55.766;37.570;2023-03-04T13:58:26;97139.75;;;2.24;65.81
37792;BME280;29527;55.766;37.570;2023-03-04T14:00:54;97144.16;;;2.23;65.56
37792;BME280;29527;55.766;37.570;2023-03-04T14:03:25;97129.56;;;2.09;65.81
37792;BME280;29527;55.766;37.570;2023-03-04T14:06:16;97130.00;;;2.14;66.36
37792;BME280;29527;55.766;37.570;2023-03-04T14:08:43;97125.41;;;2.07;66.48
37792;BME280;29527;55.766;37.570;2023-03-04T14:11:12;97117.22;;;2.00;66.72
37792;BME280;29527;55.766;37.570;2023-03-04T14:13:39;97123.03;;;1.94;67.45
37792;BME280;29527;55.766;37.570;2023-03-04T14:16:05;97120.41;;;1.94;67.10
37792;BME280;29527;55.766;37.570;2023-03-04T14:18:31;97116.06;;;1.93;67.42
37792;BME280;29527;55.766;37.570;2023-03-04T14:20:58;97085.22;;;1.74;67.13
37792;BME280;29527;55.766;37.570;2023-03-04T14:23:33;97110.53;;;1.86;67.53
37792;BME280;29527;55.766;37.570;2023-03-04T14:26:18;97105.97;;;2.08;66.25
37792;BME280;29527;55.766;37.570;2023-03-04T14:28:45;97105.97;;;1.98;66.40